createdAt,value
2019-01-10T00:01:08.305Z,104.03
2019-01-10T00:03:40.703Z,112.53
2019-01-10T00:06:13.219Z,110.43
2019-01-10T00:08:45.615Z,107.50
2019-01-10T00:11:18.025Z,111.63
2019-01-10T00:13:50.810Z,106.90
2019-01-10T00:16:23.477Z,109.83
2019-01-10T00:18:56.341Z,107.80
2019-01-10T00:21:28.924Z,103.43
2019-01-10T00:24:01.608Z,105.73
2019-01-10T00:26:34.073Z,107.03
2019-01-10T00:29:06.544Z,106.83
2019-01-10T00:31:39.245Z,102.83
2019-01-10T00:34:12.000Z,109.57
2019-01-10T00:36:45.757Z,115.93
2019-01-10T00:39:18.213Z,107.90
2019-01-10T00:41:51.259Z,103.77
2019-01-10T00:44:23.801Z,111.23
2019-01-10T00:46:56.330Z,107.80
2019-01-10T00:49:28.686Z,109.37
2019-01-10T00:52:01.266Z,111.40
2019-01-10T00:54:33.958Z,109.50
2019-01-10T00:57:06.659Z,99.17
2019-01-10T00:59:39.284Z,100.63
2019-01-10T01:02:11.954Z,109.37
2019-01-10T01:04:44.300Z,104.47
2019-01-10T01:07:16.950Z,103.70
2019-01-10T01:09:49.319Z,108.23
2019-01-10T01:12:21.795Z,103.40
2019-01-10T01:14:54.401Z,110.93
2019-01-10T01:17:26.881Z,105.50
2019-01-10T01:19:59.557Z,109.10
2019-01-10T01:22:32.082Z,109.47
2019-01-10T01:25:04.984Z,104.03
2019-01-10T01:27:37.662Z,103.30
2019-01-10T01:30:14.862Z,107.67
2019-01-10T01:32:48.123Z,105.17
2019-01-10T01:35:21.711Z,105.27
2019-01-10T01:37:54.420Z,105.70
2019-01-10T01:40:26.840Z,98.03
2019-01-10T01:43:07.344Z,106.90
2019-01-10T01:45:33.733Z,97.13
2019-01-10T01:48:06.337Z,95.13
2019-01-10T01:50:38.845Z,105.83
2019-01-10T01:53:11.207Z,98.13
2019-01-10T01:55:43.588Z,108.80
2019-01-10T01:58:16.236Z,104.90
2019-01-10T02:00:48.573Z,111.30
2019-01-10T02:03:20.937Z,118.93
2019-01-10T02:05:53.396Z,108.73
2019-01-10T02:08:25.952Z,110.40
2019-01-10T02:10:58.391Z,108.53
2019-01-10T02:13:30.860Z,107.23
2019-01-10T02:16:03.229Z,108.10
2019-01-10T02:18:35.638Z,111.80
2019-01-10T02:21:08.401Z,106.10
2019-01-10T02:23:40.880Z,115.40
2019-01-10T02:26:13.344Z,106.73
2019-01-10T02:28:45.757Z,102.90
2019-01-10T02:31:18.690Z,94.10
2019-01-10T02:33:51.713Z,94.13
2019-01-10T02:36:24.175Z,91.20
2019-01-10T02:38:56.483Z,94.30
2019-01-10T02:41:28.855Z,93.80
2019-01-10T02:44:01.418Z,99.57
2019-01-10T02:46:33.770Z,95.90
2019-01-10T02:49:06.672Z,93.50
2019-01-10T02:51:39.358Z,95.83
2019-01-10T02:54:11.841Z,103.57
2019-01-10T02:56:44.366Z,97.80
2019-01-10T02:59:16.921Z,93.57
2019-01-10T03:01:49.486Z,97.03
2019-01-10T03:04:21.930Z,99.63
2019-01-10T03:06:54.506Z,91.63
2019-01-10T03:09:26.969Z,98.93
2019-01-10T03:11:59.387Z,94.03
2019-01-10T03:14:31.919Z,94.10
2019-01-10T03:17:04.568Z,89.10
2019-01-10T03:19:37.277Z,91.47
2019-01-10T03:22:09.786Z,100.43
2019-01-10T03:24:42.473Z,100.90
2019-01-10T03:27:15.048Z,104.43
2019-01-10T03:29:47.446Z,103.53
2019-01-10T03:32:20.014Z,105.33
2019-01-10T03:34:52.511Z,107.73
2019-01-10T03:37:25.110Z,105.33
2019-01-10T03:39:57.711Z,105.60
2019-01-10T03:42:30.090Z,104.83
2019-01-10T03:45:02.572Z,104.43
2019-01-10T03:47:35.017Z,100.10
2019-01-10T03:50:11.286Z,102.60
2019-01-10T03:52:43.799Z,101.43
2019-01-10T03:55:16.490Z,106.17
2019-01-10T03:57:49.120Z,103.50
2019-01-10T04:00:26.030Z,101.40
2019-01-10T04:02:58.475Z,106.47
2019-01-10T04:05:31.051Z,102.63
2019-01-10T04:08:03.497Z,105.17
2019-01-10T04:10:35.956Z,115.30
2019-01-10T04:13:08.476Z,117.67
2019-01-10T04:15:52.095Z,115.37
2019-01-10T04:18:24.634Z,111.73
2019-01-10T04:20:57.120Z,109.73
2019-01-10T04:23:29.755Z,101.40
2019-01-10T04:26:02.178Z,104.67
2019-01-10T04:28:34.634Z,109.13
2019-01-10T04:31:07.353Z,107.23
2019-01-10T04:33:40.002Z,98.87
2019-01-10T04:36:12.746Z,77.17
2019-01-10T04:38:45.478Z,90.20
2019-01-10T04:41:29.186Z,90.70
2019-01-10T04:44:06.983Z,86.73
2019-01-10T04:46:38.807Z,83.50
2019-01-10T04:49:11.402Z,46.33
2019-01-10T04:51:51.639Z,41.67
2019-01-10T04:54:24.034Z,49.33
2019-01-10T04:56:56.466Z,51.53
2019-01-10T04:59:29.013Z,41.67
2019-01-10T05:02:01.323Z,37.93
2019-01-10T05:04:33.717Z,37.03
2019-01-10T05:07:07.005Z,28.20
2019-01-10T05:09:39.607Z,27.37
2019-01-10T05:12:12.112Z,25.40
2019-01-10T05:14:44.541Z,32.80
2019-01-10T05:17:17.196Z,41.77
2019-01-10T05:19:49.798Z,29.40
2019-01-10T05:22:22.217Z,23.57
2019-01-10T05:24:54.972Z,27.50
2019-01-10T05:27:27.363Z,19.80
2019-01-10T05:29:59.859Z,21.37
2019-01-10T05:32:32.524Z,22.67
2019-01-10T05:35:05.113Z,20.63
2019-01-10T05:37:37.669Z,21.10
2019-01-10T05:40:11.876Z,19.77
2019-01-10T05:42:44.523Z,26.07
2019-01-10T05:45:17.564Z,24.60
2019-01-10T05:47:50.163Z,17.23
2019-01-10T05:50:22.554Z,18.87
2019-01-10T05:52:55.161Z,17.93
2019-01-10T05:55:27.640Z,22.30
2019-01-10T05:58:00.927Z,36.43
2019-01-10T06:00:33.759Z,25.37
2019-01-10T06:03:06.207Z,30.30
2019-01-10T06:05:38.763Z,48.17
2019-01-10T06:08:11.144Z,31.40
2019-01-10T06:10:45.654Z,20.10
2019-01-10T06:13:28.889Z,21.57
2019-01-10T06:16:01.236Z,18.53
2019-01-10T06:18:33.548Z,19.07
2019-01-10T06:21:06.084Z,21.67
2019-01-10T06:23:38.865Z,18.30
2019-01-10T06:26:11.173Z,18.83
2019-01-10T06:28:45.270Z,16.37
2019-01-10T06:31:18.551Z,17.90
2019-01-10T06:33:51.159Z,18.37
2019-01-10T06:36:23.638Z,18.33
2019-01-10T06:38:56.147Z,21.57
2019-01-10T06:41:28.880Z,20.97
2019-01-10T06:44:01.434Z,18.93
2019-01-10T06:46:33.993Z,17.07
2019-01-10T06:49:06.615Z,20.93
2019-01-10T06:51:39.217Z,20.73
2019-01-10T06:54:11.729Z,19.63
2019-01-10T06:56:44.648Z,22.63
2019-01-10T06:59:17.182Z,30.17
2019-01-10T07:01:49.457Z,64.10
2019-01-10T07:04:22.028Z,29.97
2019-01-10T07:06:54.447Z,21.07
2019-01-10T07:09:26.853Z,21.60
2019-01-10T07:11:59.478Z,21.77
2019-01-10T07:14:31.542Z,21.83
2019-01-10T07:17:05.503Z,21.23
2019-01-10T07:19:48.672Z,31.37
2019-01-10T07:22:21.458Z,24.83
2019-01-10T07:24:57.273Z,30.67
2019-01-10T07:27:30.273Z,32.60
2019-01-10T07:30:02.912Z,26.43
2019-01-10T07:32:35.463Z,35.23
2019-01-10T07:35:13.688Z,28.43
2019-01-10T07:37:57.620Z,42.33
2019-01-10T07:40:30.547Z,32.60
2019-01-10T07:43:04.405Z,35.67
2019-01-10T07:45:37.092Z,30.73
2019-01-10T07:48:12.020Z,37.77
2019-01-10T07:50:44.879Z,37.87
2019-01-10T07:53:17.359Z,43.77
2019-01-10T07:55:49.876Z,41.03
2019-01-10T07:58:22.360Z,39.47
2019-01-10T08:00:54.823Z,38.17
2019-01-10T08:03:27.324Z,41.63
2019-01-10T08:05:59.873Z,40.07
2019-01-10T08:08:32.366Z,35.70
2019-01-10T08:11:05.156Z,38.13
2019-01-10T08:13:37.789Z,33.73
2019-01-10T08:16:10.390Z,38.33
2019-01-10T08:18:42.840Z,34.87
2019-01-10T08:21:15.593Z,33.80
2019-01-10T08:23:48.004Z,37.87
2019-01-10T08:26:20.617Z,36.43
2019-01-10T08:28:52.996Z,38.10
2019-01-10T08:31:25.548Z,39.63
2019-01-10T08:33:58.226Z,40.60
2019-01-10T08:36:32.643Z,37.97
2019-01-10T08:39:06.398Z,36.50
2019-01-10T08:41:39.018Z,42.33
2019-01-10T08:44:11.407Z,44.80
2019-01-10T08:46:43.831Z,40.57
2019-01-10T08:49:16.194Z,41.27
2019-01-10T08:51:48.889Z,44.07
2019-01-10T08:54:21.290Z,46.27
2019-01-10T08:56:53.936Z,50.20
2019-01-10T08:59:26.615Z,48.50
2019-01-10T09:01:58.975Z,49.83
2019-01-10T09:04:31.358Z,49.77
2019-01-10T09:07:03.867Z,46.77
2019-01-10T09:09:36.305Z,51.67
2019-01-10T09:12:10.144Z,46.03
2019-01-10T09:14:42.439Z,44.40
2019-01-10T09:17:15.022Z,44.03
2019-01-10T09:19:47.598Z,39.77
2019-01-10T09:22:20.122Z,36.73
2019-01-10T09:24:52.706Z,36.43
2019-01-10T09:27:25.279Z,33.97
2019-01-10T09:29:57.748Z,32.40
2019-01-10T09:32:30.158Z,31.63
2019-01-10T09:35:02.617Z,29.60
2019-01-10T09:37:35.130Z,31.70
2019-01-10T09:40:10.059Z,30.80
2019-01-10T09:42:42.599Z,31.40
2019-01-10T09:45:18.380Z,29.77
2019-01-10T09:47:51.051Z,34.30
2019-01-10T09:50:24.200Z,29.63
2019-01-10T09:52:57.534Z,32.60
2019-01-10T09:55:30.085Z,27.40
2019-01-10T09:58:02.621Z,30.63
2019-01-10T10:00:35.339Z,31.87
2019-01-10T10:03:07.715Z,29.60
2019-01-10T10:05:40.127Z,28.70
2019-01-10T10:08:12.509Z,27.90
2019-01-10T10:10:45.091Z,28.83
2019-01-10T10:13:17.675Z,28.67
2019-01-10T10:15:52.752Z,28.83
2019-01-10T10:18:24.616Z,26.23
2019-01-10T10:20:57.296Z,29.20
2019-01-10T10:23:29.869Z,25.27
2019-01-10T10:26:02.491Z,26.83
2019-01-10T10:28:34.990Z,27.23
2019-01-10T10:31:07.558Z,27.33
2019-01-10T10:33:39.907Z,24.93
2019-01-10T10:36:12.580Z,24.23
2019-01-10T10:38:45.061Z,27.60
2019-01-10T10:41:17.581Z,25.50
2019-01-10T10:43:50.188Z,25.77
2019-01-10T10:46:22.789Z,22.30
2019-01-10T10:48:55.338Z,24.67
2019-01-10T10:51:28.020Z,23.10
2019-01-10T10:54:00.563Z,23.87
2019-01-10T10:56:33.404Z,24.27
2019-01-10T10:59:06.272Z,24.97
2019-01-10T11:01:38.858Z,23.00
2019-01-10T11:04:11.623Z,23.93
2019-01-10T11:06:44.248Z,24.60
2019-01-10T11:09:16.880Z,25.63
2019-01-10T11:11:49.698Z,24.40
2019-01-10T11:14:22.351Z,26.90
2019-01-10T11:16:54.984Z,23.53
2019-01-10T11:19:27.604Z,27.30
2019-01-10T11:22:00.170Z,22.37
2019-01-10T11:24:32.862Z,28.97
2019-01-10T11:27:05.351Z,25.20
2019-01-10T11:29:37.771Z,24.77
2019-01-10T11:32:13.333Z,26.27
2019-01-10T11:34:44.383Z,24.90
2019-01-10T11:37:17.141Z,23.93
2019-01-10T11:39:49.479Z,23.27
2019-01-10T11:42:22.204Z,29.70
2019-01-10T11:44:54.621Z,25.63
2019-01-10T11:47:26.958Z,25.03
2019-01-10T11:49:59.387Z,23.60
2019-01-10T11:52:31.715Z,22.83
2019-01-10T11:55:04.567Z,22.57
2019-01-10T11:57:37.158Z,22.07
2019-01-10T12:00:18.176Z,21.70
2019-01-10T12:02:50.973Z,22.20
2019-01-10T12:05:23.757Z,22.43
2019-01-10T12:07:56.768Z,24.43
2019-01-10T12:10:29.145Z,21.30
2019-01-10T12:13:01.868Z,21.27
2019-01-10T12:15:34.507Z,23.83
2019-01-10T12:18:07.693Z,18.33
2019-01-10T12:20:40.105Z,23.17
2019-01-10T12:23:12.678Z,23.20
2019-01-10T12:25:45.372Z,22.57
2019-01-10T12:28:17.928Z,25.83
2019-01-10T12:30:50.618Z,23.70
2019-01-10T12:33:23.107Z,21.53
2019-01-10T12:35:55.799Z,19.97
2019-01-10T12:38:28.346Z,23.83
2019-01-10T12:41:01.405Z,21.53
2019-01-10T12:43:33.892Z,23.10
2019-01-10T12:46:17.612Z,23.73
2019-01-10T12:48:50.203Z,19.00
2019-01-10T12:51:22.775Z,22.60
2019-01-10T12:53:55.140Z,21.93
2019-01-10T12:56:29.256Z,22.93
2019-01-10T12:59:01.775Z,25.83
2019-01-10T13:01:34.240Z,20.20
2019-01-10T13:04:07.095Z,21.33
2019-01-10T13:06:39.664Z,22.67
2019-01-10T13:09:12.234Z,20.57
2019-01-10T13:11:44.752Z,24.73
2019-01-10T13:14:17.395Z,24.17
2019-01-10T13:16:49.778Z,22.43
2019-01-10T13:19:22.241Z,22.67
2019-01-10T13:21:54.609Z,23.07
2019-01-10T13:24:27.024Z,21.37
2019-01-10T13:26:59.785Z,25.27
2019-01-10T13:29:32.300Z,24.23
2019-01-10T13:32:15.397Z,26.67
2019-01-10T13:34:47.966Z,23.93
2019-01-10T13:37:20.939Z,24.60
2019-01-10T13:39:53.948Z,25.37
2019-01-10T13:42:26.476Z,24.13
2019-01-10T13:44:58.818Z,19.50
2019-01-10T13:47:39.596Z,21.50
2019-01-10T13:50:16.965Z,21.13
2019-01-10T13:52:50.096Z,22.07
2019-01-10T13:55:22.824Z,24.20
2019-01-10T13:57:55.488Z,24.37
2019-01-10T14:00:35.422Z,23.40
2019-01-10T14:03:04.911Z,22.00
2019-01-10T14:05:37.648Z,25.23
2019-01-10T14:08:10.115Z,24.27
2019-01-10T14:10:42.574Z,26.03
2019-01-10T14:13:14.931Z,23.07
2019-01-10T14:15:47.598Z,24.83
2019-01-10T14:18:20.130Z,23.47
2019-01-10T14:20:52.793Z,21.80
2019-01-10T14:23:25.518Z,32.13
2019-01-10T14:25:58.083Z,26.47
2019-01-10T14:28:43.155Z,25.90
2019-01-10T14:31:15.775Z,26.97
2019-01-10T14:33:48.292Z,25.23
2019-01-10T14:36:20.987Z,37.87
2019-01-10T14:38:53.647Z,37.13
2019-01-10T14:41:26.208Z,28.87
2019-01-10T14:43:58.859Z,27.37
2019-01-10T14:46:31.745Z,47.43
2019-01-10T14:49:04.318Z,31.73
2019-01-10T14:51:36.876Z,28.67
2019-01-10T14:54:11.274Z,23.57
2019-01-10T14:56:45.205Z,23.93
2019-01-10T14:59:17.522Z,25.73
2019-01-10T15:01:50.006Z,24.13
2019-01-10T15:04:22.556Z,29.73
2019-01-10T15:06:55.750Z,25.60
2019-01-10T15:09:28.234Z,31.40
2019-01-10T15:12:00.914Z,25.23
2019-01-10T15:14:34.649Z,28.57
2019-01-10T15:17:07.283Z,29.20
2019-01-10T15:19:39.835Z,25.43
2019-01-10T15:22:12.338Z,26.80
2019-01-10T15:24:44.958Z,29.80
2019-01-10T15:27:17.513Z,28.30
2019-01-10T15:29:50.372Z,28.63
2019-01-10T15:32:22.849Z,27.10
2019-01-10T15:34:55.314Z,28.13
2019-01-10T15:37:28.199Z,26.53
2019-01-10T15:40:00.737Z,25.73
2019-01-10T15:42:33.399Z,28.90
2019-01-10T15:45:07.057Z,27.40
2019-01-10T15:47:39.692Z,26.57
2019-01-10T15:50:14.792Z,30.10
2019-01-10T15:52:48.277Z,27.47
2019-01-10T15:55:21.454Z,34.67
2019-01-10T15:57:54.160Z,29.33
2019-01-10T16:00:27.142Z,32.40
2019-01-10T16:02:59.761Z,31.47
2019-01-10T16:05:32.100Z,43.87
2019-01-10T16:08:05.063Z,36.93
2019-01-10T16:10:38.150Z,32.73
2019-01-10T16:13:10.754Z,33.40
2019-01-10T16:15:43.278Z,28.73
2019-01-10T16:18:15.742Z,33.20
2019-01-10T16:20:48.234Z,31.33
2019-01-10T16:23:21.618Z,39.03
2019-01-10T16:25:54.037Z,33.30
2019-01-10T16:28:37.715Z,32.87
2019-01-10T16:31:10.512Z,29.93
2019-01-10T16:33:43.200Z,34.37
2019-01-10T16:36:15.774Z,32.70
2019-01-10T16:38:48.445Z,29.70
2019-01-10T16:41:21.289Z,37.17
2019-01-10T16:43:53.981Z,37.30
2019-01-10T16:46:26.976Z,37.43
2019-01-10T16:48:59.765Z,38.60
2019-01-10T16:51:32.418Z,31.53
2019-01-10T16:54:04.933Z,32.97
2019-01-10T16:56:39.442Z,35.57
2019-01-10T16:59:12.295Z,35.37
2019-01-10T17:01:44.650Z,34.30
2019-01-10T17:04:17.728Z,32.83
2019-01-10T17:06:50.238Z,31.13
2019-01-10T17:09:23.274Z,34.17
2019-01-10T17:11:55.647Z,36.33
2019-01-10T17:14:29.636Z,41.03
2019-01-10T17:17:02.159Z,42.13
2019-01-10T17:19:34.994Z,36.57
2019-01-10T17:22:07.540Z,38.60
2019-01-10T17:24:40.123Z,37.43
2019-01-10T17:27:12.738Z,35.50
2019-01-10T17:29:45.670Z,35.97
2019-01-10T17:32:18.132Z,36.23
2019-01-10T17:34:52.352Z,38.10
2019-01-10T17:37:25.058Z,35.10
2019-01-10T17:39:57.624Z,31.73
2019-01-10T17:42:30.584Z,34.47
2019-01-10T17:45:03.061Z,46.03
2019-01-10T17:47:35.547Z,44.70
2019-01-10T17:50:10.277Z,47.27
2019-01-10T17:52:43.129Z,37.70
2019-01-10T17:55:17.576Z,35.33
2019-01-10T17:57:49.851Z,35.80
2019-01-10T18:00:25.518Z,31.80
2019-01-10T18:02:58.629Z,33.53
2019-01-10T18:05:31.520Z,36.40
2019-01-10T18:08:04.357Z,33.30
2019-01-10T18:10:37.001Z,36.53
2019-01-10T18:13:09.600Z,43.20
2019-01-10T18:15:44.050Z,37.70
2019-01-10T18:18:16.902Z,32.87
2019-01-10T18:20:49.796Z,29.70
2019-01-10T18:23:22.555Z,36.20
2019-01-10T18:25:56.069Z,32.00
2019-01-10T18:28:29.813Z,32.00
2019-01-10T18:31:02.187Z,33.90
2019-01-10T18:33:34.684Z,30.30
2019-01-10T18:36:08.039Z,32.43
2019-01-10T18:38:40.554Z,29.87
2019-01-10T18:41:13.169Z,26.70
2019-01-10T18:43:47.002Z,31.20
2019-01-10T18:46:19.784Z,29.03
2019-01-10T18:48:52.782Z,26.50
2019-01-10T18:51:25.483Z,32.63
2019-01-10T18:53:57.968Z,40.10
2019-01-10T18:56:30.423Z,44.90
2019-01-10T18:59:03.414Z,27.60
2019-01-10T19:01:36.153Z,32.63
2019-01-10T19:04:09.651Z,33.37
2019-01-10T19:06:42.273Z,39.03
2019-01-10T19:09:16.576Z,39.47
2019-01-10T19:11:49.112Z,37.50
2019-01-10T19:14:21.481Z,39.83
2019-01-10T19:16:53.864Z,48.57
2019-01-10T19:19:26.909Z,42.57
2019-01-10T19:21:59.633Z,43.03
2019-01-10T19:24:32.357Z,40.43
2019-01-10T19:27:05.364Z,44.17
2019-01-10T19:29:38.473Z,40.80
2019-01-10T19:32:11.162Z,54.47
2019-01-10T19:34:43.955Z,43.30
2019-01-10T19:37:16.577Z,40.27
2019-01-10T19:39:51.023Z,35.80
2019-01-10T19:42:23.893Z,28.13
2019-01-10T19:44:56.527Z,25.03
2019-01-10T19:47:29.158Z,26.17
2019-01-10T19:50:01.944Z,26.43
2019-01-10T19:52:34.998Z,25.17
2019-01-10T19:55:09.991Z,26.37
2019-01-10T19:57:42.619Z,27.37
2019-01-10T20:00:46.175Z,24.53
2019-01-10T20:03:18.955Z,25.80
2019-01-10T20:05:53.463Z,27.43
2019-01-10T20:08:26.563Z,25.00
2019-01-10T20:10:59.106Z,28.67
2019-01-10T20:13:31.635Z,26.07
2019-01-10T20:16:05.020Z,28.80
2019-01-10T20:18:38.107Z,27.43
2019-01-10T20:21:10.863Z,28.17
2019-01-10T20:23:43.457Z,29.80
2019-01-10T20:26:16.067Z,30.13
2019-01-10T20:28:48.690Z,25.77
2019-01-10T20:31:21.491Z,27.33
2019-01-10T20:33:54.211Z,27.03
2019-01-10T20:36:26.721Z,26.73
2019-01-10T20:38:59.155Z,28.30
2019-01-10T20:41:31.692Z,25.50
2019-01-10T20:44:23.189Z,26.67
2019-01-10T20:46:56.075Z,22.07
2019-01-10T20:49:28.484Z,25.90
2019-01-10T20:52:01.403Z,22.33
2019-01-10T20:54:34.088Z,24.43
2019-01-10T20:57:18.229Z,23.30
2019-01-10T20:59:51.280Z,30.90
2019-01-10T21:02:23.889Z,23.37
2019-01-10T21:04:56.691Z,21.17
2019-01-10T21:07:29.712Z,23.00
2019-01-10T21:10:02.370Z,20.00
2019-01-10T21:12:34.993Z,20.43
2019-01-10T21:15:10.779Z,18.87
2019-01-10T21:17:43.732Z,21.70
2019-01-10T21:20:16.484Z,20.57
2019-01-10T21:22:49.465Z,19.93
2019-01-10T21:25:32.849Z,20.13
2019-01-10T21:28:16.536Z,18.17
2019-01-10T21:30:49.595Z,18.93
2019-01-10T21:33:22.153Z,20.43
2019-01-10T21:35:55.298Z,19.20
2019-01-10T21:38:38.909Z,16.93
2019-01-10T21:41:12.216Z,22.93
2019-01-10T21:43:44.517Z,16.40
2019-01-10T21:46:17.048Z,14.20
2019-01-10T21:48:49.537Z,18.33
2019-01-10T21:51:21.992Z,17.90
2019-01-10T21:53:55.745Z,16.43
2019-01-10T21:56:29.511Z,14.90
2019-01-10T21:59:02.082Z,14.83
2019-01-10T22:01:34.476Z,15.33
2019-01-10T22:04:07.292Z,14.03
2019-01-10T22:06:39.807Z,16.73
2019-01-10T22:09:12.568Z,15.73
2019-01-10T22:11:44.939Z,16.77
2019-01-10T22:14:17.259Z,14.70
2019-01-10T22:16:50.034Z,15.03
2019-01-10T22:19:23.092Z,14.33
2019-01-10T22:21:55.912Z,13.03
2019-01-10T22:24:28.495Z,10.10
2019-01-10T22:27:01.093Z,12.93
2019-01-10T22:29:33.465Z,11.83
2019-01-10T22:32:06.005Z,12.40
2019-01-10T22:34:39.208Z,10.63
2019-01-10T22:37:11.759Z,10.33
2019-01-10T22:39:46.369Z,19.50
2019-01-10T22:42:18.868Z,11.33
2019-01-10T22:44:52.374Z,10.20
2019-01-10T22:47:24.949Z,11.43
2019-01-10T22:49:57.503Z,11.57
2019-01-10T22:52:30.639Z,11.73
2019-01-10T22:55:14.394Z,11.50
2019-01-10T22:57:47.170Z,10.47
2019-01-10T23:01:17.080Z,9.57
2019-01-10T23:04:01.215Z,11.87
2019-01-10T23:06:44.332Z,10.57
2019-01-10T23:09:18.294Z,8.93
2019-01-10T23:11:51.057Z,11.10
2019-01-10T23:14:23.429Z,11.20
2019-01-10T23:16:55.740Z,9.67
2019-01-10T23:19:28.184Z,11.27
2019-01-10T23:22:13.265Z,9.30
2019-01-10T23:24:49.060Z,10.13
2019-01-10T23:27:21.584Z,9.33
2019-01-10T23:29:54.345Z,9.00
2019-01-10T23:32:26.949Z,10.43
2019-01-10T23:34:59.512Z,9.33
2019-01-10T23:37:32.156Z,9.00
2019-01-10T23:40:04.847Z,9.70
2019-01-10T23:42:37.113Z,9.00
2019-01-10T23:45:11.431Z,10.17
2019-01-10T23:47:43.970Z,8.57
2019-01-10T23:50:16.407Z,8.50
2019-01-10T23:52:48.987Z,11.13
2019-01-10T23:55:21.430Z,8.07
2019-01-10T23:57:54.122Z,8.00
